Time;durP1;ratioP1;P1;durP2;ratioP2;P2;SDS_P1;SDS_P2;PMS_P1;PMS_P2;Temp;Humidity;BMP_temperature;BMP_pressure;BME280_temperature;BME280_humidity;BME280_pressure;Samples;Min_cycle;Max_cycle;Signal;HPM_P1;HPM_P2
2023/06/27 00:01:51;;;;;;;2.13;1.92;;;26.10;42.40;26.30;101233.00;;;;4995497;28;20175;-48
2023/06/27 00:04:19;;;;;;;2.30;2.10;;;26.10;42.40;26.30;101231.00;;;;5015845;28;20202;-50
2023/06/27 00:06:45;;;;;;;2.42;2.13;;;26.00;42.40;26.20;101232.00;;;;5014461;28;20183;-48
2023/06/27 00:09:11;;;;;;;4.28;2.30;;;26.00;42.50;26.20;101240.00;;;;5011207;28;20172;-49
2023/06/27 00:11:37;;;;;;;2.38;2.17;;;26.00;42.60;26.20;101238.00;;;;5011148;28;20195;-48
2023/06/27 00:14:04;;;;;;;2.30;2.10;;;26.00;42.70;26.20;101239.00;;;;5009914;28;20172;-49
2023/06/27 00:16:34;;;;;;;2.17;1.98;;;26.00;42.80;26.20;101234.00;;;;5010052;28;20172;-48
2023/06/27 00:19:02;;;;;;;2.30;2.10;;;25.90;42.80;26.10;101235.00;;;;5010817;28;20184;-49
2023/06/27 00:21:29;;;;;;;2.33;2.00;;;25.90;42.90;26.10;101226.00;;;;5010857;28;20254;-49
2023/06/27 00:23:58;;;;;;;2.50;2.30;;;25.90;42.90;26.10;101240.00;;;;5011614;28;20186;-48
2023/06/27 00:26:24;;;;;;;3.83;2.45;;;25.90;42.90;26.00;101228.00;;;;5012288;28;20218;-49
2023/06/27 00:28:50;;;;;;;2.38;2.17;;;25.90;43.00;26.00;101235.00;;;;4992799;28;20655;-49
2023/06/27 00:31:16;;;;;;;2.85;2.25;;;25.80;43.00;26.00;101238.00;;;;5010436;28;20534;-49
2023/06/27 00:33:41;;;;;;;2.42;2.22;;;25.90;43.10;26.00;101239.00;;;;5009906;28;20172;-49
2023/06/27 00:36:07;;;;;;;2.63;2.30;;;25.80;43.20;26.00;101231.00;;;;5010440;28;20195;-48
2023/06/27 00:38:33;;;;;;;2.10;1.90;;;25.80;43.30;25.90;101229.00;;;;5010418;28;20167;-49
2023/06/27 00:40:59;;;;;;;4.22;2.15;;;25.80;43.20;25.90;101231.00;;;;5010509;28;20172;-50
2023/06/27 00:43:28;;;;;;;2.92;2.10;;;25.70;43.40;25.90;101233.00;;;;5009736;28;20171;-48
2023/06/27 00:45:53;;;;;;;3.10;2.22;;;25.70;43.30;25.90;101228.00;;;;5010158;28;20315;-49
2023/06/27 00:48:19;;;;;;;3.20;2.10;;;25.70;43.30;25.80;101237.00;;;;5009936;28;20298;-48
2023/06/27 00:50:45;;;;;;;3.33;2.30;;;25.70;43.30;25.80;101233.00;;;;5010019;28;20176;-49
2023/06/27 00:53:11;;;;;;;3.45;2.40;;;25.70;43.40;25.80;101233.00;;;;4992315;28;20732;-51
2023/06/27 00:55:39;;;;;;;2.58;2.30;;;25.60;43.40;25.80;101227.00;;;;5011102;28;20219;-48
2023/06/27 00:58:06;;;;;;;2.78;2.03;;;25.60;43.60;25.70;101237.00;;;;4994754;28;20298;-49
2023/06/27 01:00:32;;;;;;;2.55;2.35;;;25.60;43.70;25.70;101233.00;;;;4994218;28;20173;-49
2023/06/27 01:02:57;;;;;;;2.88;2.20;;;25.60;43.90;25.70;101218.00;;;;5011114;28;20238;-49
2023/06/27 01:05:24;;;;;;;2.17;2.00;;;25.50;44.00;25.70;101237.00;;;;5010610;28;20191;-49
2023/06/27 01:08:03;;;;;;;3.22;2.63;;;25.50;44.10;25.70;101237.00;;;;4993135;28;20196;-49
2023/06/27 01:10:54;;;;;;;2.63;2.20;;;25.50;44.20;25.60;101233.00;;;;4992988;28;20175;-49
2023/06/27 01:13:31;;;;;;;2.47;2.10;;;25.50;44.40;25.60;101217.00;;;;4993010;28;20167;-48
2023/06/27 01:15:57;;;;;;;2.83;2.40;;;25.50;44.40;25.60;101234.00;;;;4975572;28;20693;-49
2023/06/27 01:18:23;;;;;;;2.65;2.22;;;25.50;44.50;25.50;101244.00;;;;4990948;28;20187;-48
2023/06/27 01:20:49;;;;;;;2.22;2.03;;;25.40;44.50;25.50;101230.00;;;;4992797;28;20723;-48
2023/06/27 01:23:21;;;;;;;3.08;2.20;;;25.40;44.60;25.50;101244.00;;;;4992132;28;20212;-47
2023/06/27 01:25:49;;;;;;;2.45;2.05;;;25.40;44.70;25.50;101240.00;;;;5009093;28;20199;-52
2023/06/27 01:28:15;;;;;;;2.20;2.03;;;25.40;44.90;25.40;101237.00;;;;5004969;28;20211;-49
2023/06/27 01:30:41;;;;;;;3.35;2.30;;;25.30;45.00;25.40;101234.00;;;;5009877;28;20175;-48
2023/06/27 01:33:16;;;;;;;2.00;1.90;;;25.30;45.10;25.40;101229.00;;;;4991865;28;20179;-49
2023/06/27 01:36:01;;;;;;;2.35;2.15;;;25.30;45.80;25.30;101222.00;;;;4992044;28;20191;-48
2023/06/27 01:38:35;;;;;;;2.67;2.10;;;25.20;45.10;25.20;101234.00;;;;4991884;28;20183;-48
2023/06/27 01:41:01;;;;;;;3.45;2.10;;;25.20;45.30;25.30;101215.00;;;;4992878;28;20215;-48
2023/06/27 01:43:26;;;;;;;2.60;2.28;;;25.20;45.40;25.30;101222.00;;;;4991384;28;20203;-48
2023/06/27 01:45:52;;;;;;;3.00;2.25;;;25.20;45.40;25.30;101216.00;;;;4992043;28;20211;-48
2023/06/27 01:48:18;;;;;;;3.28;2.40;;;25.20;45.50;25.20;101214.00;;;;4991449;28;20203;-49
2023/06/27 01:50:44;;;;;;;3.45;2.20;;;25.20;45.50;25.20;101228.00;;;;4975589;28;20218;-50
2023/06/27 01:53:09;;;;;;;2.58;2.10;;;25.20;45.50;25.20;101236.00;;;;5017737;28;20171;-48
2023/06/27 01:55:35;;;;;;;2.40;2.20;;;25.10;45.40;25.10;101230.00;;;;5012708;28;20286;-48
2023/06/27 01:58:01;;;;;;;2.30;2.10;;;25.10;45.40;25.10;101226.00;;;;5009942;28;20183;-49
2023/06/27 02:00:27;;;;;;;2.30;2.00;;;25.00;46.10;25.10;101222.00;;;;5010503;28;20180;-48
2023/06/27 02:02:53;;;;;;;3.38;2.13;;;25.00;45.50;25.10;101224.00;;;;5010386;28;20300;-48
2023/06/27 02:05:18;;;;;;;2.45;2.20;;;25.00;45.80;25.00;101219.00;;;;5009717;28;20195;-48
2023/06/27 02:07:44;;;;;;;3.22;2.10;;;25.00;45.80;25.00;101221.00;;;;5019136;28;20231;-50
2023/06/27 02:10:10;;;;;;;3.33;2.20;;;25.00;45.90;25.00;101224.00;;;;5013319;28;20187;-48
2023/06/27 02:12:36;;;;;;;2.45;2.00;;;25.00;45.90;25.00;101228.00;;;;5008787;28;20765;-49
2023/06/27 02:15:02;;;;;;;2.85;2.20;;;24.90;45.90;25.00;101225.00;;;;5008340;28;20245;-48
2023/06/27 02:17:27;;;;;;;2.10;2.00;;;24.90;46.00;24.90;101222.00;;;;5008768;28;20175;-49
2023/06/27 02:19:53;;;;;;;3.17;2.23;;;24.90;46.10;24.90;101213.00;;;;5009007;28;20291;-48
2023/06/27 02:22:19;;;;;;;2.50;2.10;;;24.80;46.10;24.90;101223.00;;;;5008642;28;20176;-48
2023/06/27 02:24:45;;;;;;;2.97;2.13;;;24.80;46.20;24.80;101222.00;;;;5008053;28;20191;-48
2023/06/27 02:27:12;;;;;;;2.53;2.22;;;24.80;46.30;24.80;101218.00;;;;5008753;28;20248;-48
2023/06/27 02:29:38;;;;;;;2.60;2.40;;;24.80;46.30;24.80;101221.00;;;;5009629;28;20183;-48
2023/06/27 02:32:05;;;;;;;2.23;2.03;;;24.80;46.40;24.80;101216.00;;;;5010657;28;20170;-49
2023/06/27 02:34:30;;;;;;;2.20;2.00;;;24.70;46.20;24.70;101217.00;;;;5008059;28;20204;-49
2023/06/27 02:36:56;;;;;;;2.70;2.50;;;24.70;46.50;24.70;101216.00;;;;4991722;28;20661;-48
2023/06/27 02:39:22;;;;;;;2.00;1.90;;;24.70;46.40;24.70;101211.00;;;;5008719;28;20168;-48
2023/06/27 02:41:48;;;;;;;2.20;2.00;;;24.70;46.60;24.70;101215.00;;;;5009513;28;20172;-48
2023/06/27 02:44:13;;;;;;;4.23;2.23;;;24.70;46.40;24.70;101215.00;;;;5007755;28;20601;-49
2023/06/27 02:46:39;;;;;;;3.17;2.20;;;24.70;46.70;24.70;101217.00;;;;4990504;28;20202;-49
2023/06/27 02:49:05;;;;;;;2.40;2.20;;;24.60;46.70;24.60;101206.00;;;;5008227;28;20207;-48
2023/06/27 02:51:31;;;;;;;2.67;2.20;;;24.60;46.80;24.60;101202.00;;;;5008493;28;20561;-48
2023/06/27 02:53:56;;;;;;;2.73;2.30;;;24.60;46.80;24.60;101211.00;;;;5007810;28;20172;-48
2023/06/27 02:56:22;;;;;;;3.93;2.53;;;24.50;46.90;24.50;101207.00;;;;5008354;28;20174;-47
2023/06/27 02:58:48;;;;;;;2.10;2.00;;;24.50;46.80;24.50;101207.00;;;;5008607;28;20232;-56
2023/06/27 03:01:14;;;;;;;2.33;2.13;;;24.40;46.70;24.50;101208.00;;;;5009019;28;20167;-48
2023/06/27 03:03:40;;;;;;;3.47;2.20;;;24.50;46.80;24.50;101210.00;;;;5009085;28;20561;-49
2023/06/27 03:06:08;;;;;;;2.90;2.70;;;24.50;46.90;24.40;101208.00;;;;5009257;28;20199;-47
2023/06/27 03:08:37;;;;;;;3.60;3.30;;;24.40;46.80;24.40;101212.00;;;;5007624;28;20233;-48
2023/06/27 03:11:03;;;;;;;4.33;2.80;;;24.40;47.00;24.40;101217.00;;;;4990893;28;20176;-48
2023/06/27 03:13:29;;;;;;;2.60;2.40;;;24.40;47.00;24.40;101220.00;;;;5008872;28;20168;-49
2023/06/27 03:15:54;;;;;;;3.43;2.43;;;24.40;47.10;24.40;101211.00;;;;5008972;28;20393;-48
2023/06/27 03:18:20;;;;;;;2.73;2.33;;;24.40;47.00;24.40;101219.00;;;;5008391;28;20342;-48
2023/06/27 03:20:46;;;;;;;3.23;2.47;;;24.40;47.10;24.40;101221.00;;;;4991575;28;20198;-48
2023/06/27 03:23:12;;;;;;;2.63;2.30;;;24.40;47.30;24.30;101228.00;;;;5008835;28;20175;-49
2023/06/27 03:25:37;;;;;;;4.07;2.90;;;24.30;47.20;24.30;101232.00;;;;5008365;28;20195;-48
2023/06/27 03:28:03;;;;;;;2.87;2.47;;;24.30;47.20;24.30;101224.00;;;;4991407;28;20207;-48
2023/06/27 03:30:29;;;;;;;3.50;2.30;;;24.30;47.30;24.20;101226.00;;;;5007680;28;20175;-49
2023/06/27 03:32:55;;;;;;;3.60;2.40;;;24.20;47.30;24.20;101229.00;;;;4999051;28;20253;-48
2023/06/27 03:35:20;;;;;;;2.87;2.30;;;24.20;47.50;24.20;101231.00;;;;5002831;28;20243;-48
2023/06/27 03:37:46;;;;;;;3.23;2.47;;;24.20;47.50;24.20;101221.00;;;;5008176;28;20308;-48
2023/06/27 03:40:12;;;;;;;2.47;2.27;;;24.20;47.50;24.20;101234.00;;;;5008715;28;20601;-48
2023/06/27 03:42:38;;;;;;;2.60;2.40;;;24.10;47.50;24.20;101233.00;;;;5011085;28;20648;-48
2023/06/27 03:45:04;;;;;;;2.43;2.23;;;24.10;47.50;24.10;101227.00;;;;5011863;28;20191;-48
2023/06/27 03:47:30;;;;;;;2.40;2.20;;;24.10;47.60;24.10;101230.00;;;;5011891;28;20206;-49
2023/06/27 03:49:56;;;;;;;3.70;2.50;;;24.10;47.60;24.10;101230.00;;;;5012313;28;20251;-48
2023/06/27 03:52:21;;;;;;;2.57;2.10;;;24.10;47.90;24.10;101226.00;;;;5012243;28;20179;-48
2023/06/27 03:54:47;;;;;;;2.60;2.40;;;24.10;47.80;24.10;101231.00;;;;5017258;28;20192;-48
2023/06/27 03:57:13;;;;;;;3.47;2.40;;;24.10;48.00;24.10;101240.00;;;;5022392;28;20187;-47
2023/06/27 03:59:38;;;;;;;2.60;2.40;;;24.10;48.00;24.00;101230.00;;;;5012845;28;20178;-48
2023/06/27 04:02:04;;;;;;;3.70;2.33;;;24.00;48.10;24.00;101226.00;;;;5010559;28;20216;-48
2023/06/27 04:04:30;;;;;;;3.00;2.40;;;24.00;48.10;24.00;101237.00;;;;5012176;28;20199;-48
2023/06/27 04:06:56;;;;;;;2.50;2.30;;;24.00;48.20;23.80;101228.00;;;;5011834;28;20172;-47
2023/06/27 04:09:21;;;;;;;2.90;2.30;;;24.00;48.20;24.00;101231.00;;;;5018217;28;20164;-49
2023/06/27 04:11:47;;;;;;;5.90;2.50;;;24.00;48.30;23.90;101222.00;;;;5022067;28;20197;-48
2023/06/27 04:14:17;;;;;;;2.53;2.17;;;23.90;48.10;23.90;101233.00;;;;5011320;28;20226;-48
2023/06/27 04:16:44;;;;;;;2.83;2.30;;;23.90;48.20;23.90;101214.00;;;;5011584;28;20782;-48
2023/06/27 04:19:09;;;;;;;3.50;2.60;;;23.90;48.20;23.90;101223.00;;;;5011051;28;20168;-49
2023/06/27 04:21:35;;;;;;;3.03;2.20;;;23.90;48.40;23.90;101218.00;;;;5011870;28;20251;-47
2023/06/27 04:24:01;;;;;;;4.93;2.30;;;23.90;48.40;23.90;101224.00;;;;5011236;28;20171;-48
2023/06/27 04:26:27;;;;;;;2.50;2.30;;;23.90;48.50;23.90;101226.00;;;;5011850;28;20638;-48
2023/06/27 04:28:52;;;;;;;3.43;2.30;;;23.80;48.50;23.80;101206.00;;;;4994089;28;20306;-48
2023/06/27 04:31:18;;;;;;;2.50;2.30;;;23.80;48.60;23.80;101206.00;;;;5010448;28;20164;-48
2023/06/27 04:33:44;;;;;;;3.57;2.40;;;23.80;48.60;23.80;101212.00;;;;5010270;28;20171;-48
2023/06/27 04:36:10;;;;;;;4.33;2.30;;;23.80;48.70;23.80;101216.00;;;;5011205;28;20198;-49
2023/06/27 04:38:39;;;;;;;2.83;2.40;;;23.80;48.60;23.80;101216.00;;;;5018661;28;20203;-49
2023/06/27 04:41:09;;;;;;;2.53;2.33;;;23.80;48.70;23.80;101219.00;;;;5003282;28;20164;-50
2023/06/27 04:43:34;;;;;;;2.70;2.50;;;23.80;48.90;23.70;101222.00;;;;5014261;28;20182;-47
2023/06/27 04:46:00;;;;;;;2.97;2.50;;;23.80;49.10;23.70;101224.00;;;;5011689;28;20187;-48
2023/06/27 04:48:27;;;;;;;2.60;2.40;;;23.70;49.80;23.70;101223.00;;;;5010609;28;20195;-47
2023/06/27 04:50:53;;;;;;;2.50;2.30;;;23.70;49.40;23.70;101224.00;;;;5011002;28;20195;-49
2023/06/27 04:53:20;;;;;;;3.50;2.53;;;23.70;49.40;23.70;101229.00;;;;5010157;28;20183;-48
2023/06/27 04:55:49;;;;;;;3.07;2.20;;;23.60;49.30;23.70;101226.00;;;;5010638;28;20187;-48
2023/06/27 04:58:15;;;;;;;3.20;2.40;;;23.60;49.40;23.60;101224.00;;;;5012134;28;20176;-49
2023/06/27 05:00:43;;;;;;;3.27;2.70;;;23.60;49.60;23.60;101225.00;;;;5020719;28;20172;-49
2023/06/27 05:03:08;;;;;;;2.60;2.40;;;23.60;49.70;23.60;101224.00;;;;5012246;28;20187;-48
2023/06/27 05:05:34;;;;;;;3.03;2.30;;;23.60;49.60;23.60;101224.00;;;;5011798;28;20673;-48
2023/06/27 05:08:01;;;;;;;3.03;2.27;;;23.60;49.60;23.60;101236.00;;;;5012193;28;20211;-49
2023/06/27 05:10:27;;;;;;;4.27;2.37;;;23.60;49.60;23.60;101222.00;;;;5012066;28;20168;-49
2023/06/27 05:12:52;;;;;;;3.90;2.70;;;23.50;49.60;23.40;101230.00;;;;5010854;28;20174;-49
2023/06/27 05:15:18;;;;;;;3.60;2.60;;;23.50;49.50;23.60;101224.00;;;;5009912;28;20194;-48
2023/06/27 05:17:51;;;;;;;2.90;2.47;;;23.50;49.60;23.60;101222.00;;;;5009969;28;20552;-48
2023/06/27 05:20:17;;;;;;;4.17;2.60;;;23.60;49.80;23.50;101221.00;;;;5011320;28;20180;-48
2023/06/27 05:22:43;;;;;;;3.43;2.60;;;23.50;49.60;23.50;101233.00;;;;5011796;28;20267;-48
2023/06/27 05:25:09;;;;;;;3.40;2.47;;;23.50;49.70;23.50;101224.00;;;;5010737;28;20203;-48
2023/06/27 05:27:34;;;;;;;3.03;2.70;;;23.50;49.80;23.50;101236.00;;;;4993329;28;20210;-48
2023/06/27 05:30:00;;;;;;;3.00;2.70;;;23.50;49.90;23.50;101228.00;;;;5010393;28;20163;-47
2023/06/27 05:32:26;;;;;;;2.93;2.63;;;23.50;49.90;23.50;101224.00;;;;5010466;28;20175;-48
2023/06/27 05:34:51;;;;;;;3.10;2.80;;;23.50;49.90;23.50;101221.00;;;;5009988;28;20192;-48
2023/06/27 05:37:17;;;;;;;4.53;2.80;;;23.50;50.00;23.50;101232.00;;;;5010200;28;20175;-48
2023/06/27 05:39:43;;;;;;;3.47;2.57;;;23.50;50.00;23.50;101226.00;;;;5010585;28;20191;-48
2023/06/27 05:42:09;;;;;;;3.43;2.70;;;23.40;50.10;23.40;101227.00;;;;5010505;28;20175;-48
2023/06/27 05:44:34;;;;;;;3.50;2.73;;;23.40;50.30;23.40;101230.00;;;;5010247;28;20223;-49
2023/06/27 05:47:00;;;;;;;3.33;2.57;;;23.40;50.20;23.40;101228.00;;;;5010375;28;20212;-48
2023/06/27 05:49:26;;;;;;;2.87;2.53;;;23.40;50.20;23.40;101240.00;;;;4993716;28;20163;-48
2023/06/27 05:51:51;;;;;;;4.03;2.90;;;23.40;50.50;23.40;101234.00;;;;4994908;28;20171;-48
2023/06/27 05:54:17;;;;;;;5.63;2.80;;;23.40;51.20;23.40;101233.00;;;;5010045;28;20641;-48
2023/06/27 05:56:43;;;;;;;3.67;2.90;;;23.30;50.70;23.40;101231.00;;;;5013085;28;20176;-49
2023/06/27 05:59:09;;;;;;;4.23;2.80;;;23.30;50.70;23.30;101225.00;;;;5017216;28;20184;-49
2023/06/27 06:01:37;;;;;;;4.10;2.90;;;23.30;50.70;23.30;101232.00;;;;5009665;28;20222;-49
2023/06/27 06:04:04;;;;;;;3.43;3.00;;;23.30;50.70;23.30;101228.00;;;;5008612;28;20349;-49
2023/06/27 06:06:30;;;;;;;6.73;2.90;;;23.20;50.60;23.30;101242.00;;;;5008910;28;20206;-48
2023/06/27 06:08:56;;;;;;;4.57;3.20;;;23.20;50.80;23.30;101244.00;;;;5009574;28;20713;-48
2023/06/27 06:11:22;;;;;;;4.50;2.80;;;23.20;50.80;23.30;101226.00;;;;5012452;28;20176;-48
2023/06/27 06:13:47;;;;;;;4.83;3.03;;;23.20;50.90;23.30;101232.00;;;;4998029;28;20180;-48
2023/06/27 06:16:13;;;;;;;6.63;3.70;;;23.20;51.20;23.30;101226.00;;;;5008988;28;20203;-47
2023/06/27 06:18:39;;;;;;;5.30;3.43;;;23.20;51.30;23.20;101220.00;;;;5009739;28;20184;-48
2023/06/27 06:21:04;;;;;;;6.40;3.07;;;23.10;51.40;23.20;101222.00;;;;5009394;28;20179;-48
2023/06/27 06:23:30;;;;;;;6.27;3.23;;;23.10;51.40;23.20;101231.00;;;;5008968;28;20233;-48
2023/06/27 06:25:56;;;;;;;6.50;3.40;;;23.00;51.60;23.10;101227.00;;;;5009604;28;20195;-48
2023/06/27 06:28:22;;;;;;;5.87;3.50;;;23.10;51.70;23.10;101214.00;;;;5009444;28;20215;-48
2023/06/27 06:30:47;;;;;;;7.27;3.57;;;23.00;51.80;23.10;101227.00;;;;5008867;28;20175;-49
2023/06/27 06:33:13;;;;;;;6.97;3.57;;;23.00;51.90;23.10;101226.00;;;;5009386;28;20555;-48
2023/06/27 06:35:39;;;;;;;7.40;3.63;;;23.00;52.10;23.10;101236.00;;;;5009587;28;20191;-49
2023/06/27 06:38:04;;;;;;;9.23;3.47;;;23.00;52.40;23.00;101229.00;;;;5009164;28;20175;-48
2023/06/27 06:40:30;;;;;;;5.17;3.37;;;22.90;52.50;23.00;101230.00;;;;5009131;28;20250;-48
2023/06/27 06:42:56;;;;;;;7.53;3.80;;;22.90;52.60;23.00;101230.00;;;;5008784;28;20183;-48
2023/06/27 06:45:22;;;;;;;6.83;3.60;;;22.90;52.60;23.00;101238.00;;;;5008538;28;20200;-49
2023/06/27 06:47:47;;;;;;;6.50;3.70;;;22.90;52.60;23.00;101223.00;;;;5009408;28;20682;-49
2023/06/27 06:50:14;;;;;;;7.00;3.00;;;22.80;52.70;23.00;101166.00;;;;5009151;28;20175;-48
2023/06/27 06:52:40;;;;;;;4.90;3.17;;;22.80;53.10;23.00;101237.00;;;;5002062;28;20227;-47
2023/06/27 06:55:06;;;;;;;6.33;3.70;;;22.80;53.00;22.90;101235.00;;;;4987694;28;20211;-48
2023/06/27 06:57:32;;;;;;;7.43;3.47;;;22.80;53.20;22.90;101222.00;;;;4988457;28;20187;-49
2023/06/27 06:59:58;;;;;;;7.73;3.43;;;22.80;53.30;22.90;101232.00;;;;4986102;28;20179;-48
2023/06/27 07:02:24;;;;;;;6.20;3.37;;;22.70;53.30;22.90;101237.00;;;;5008332;28;20179;-48
2023/06/27 07:04:49;;;;;;;7.10;3.67;;;22.70;53.50;22.90;101226.00;;;;5009013;28;20196;-48
2023/06/27 07:07:15;;;;;;;5.33;3.10;;;22.70;53.60;22.90;101215.00;;;;5008990;28;20192;-49
2023/06/27 07:09:41;;;;;;;5.67;3.40;;;22.70;53.60;22.90;101229.00;;;;5009276;28;20191;-48
2023/06/27 07:12:07;;;;;;;6.67;3.40;;;22.70;53.70;22.90;101227.00;;;;4994441;28;20180;-50
2023/06/27 07:14:32;;;;;;;7.73;3.50;;;22.70;53.80;22.90;101228.00;;;;4989281;28;20837;-49
2023/06/27 07:16:58;;;;;;;6.73;3.43;;;22.70;54.00;22.90;101231.00;;;;4990840;28;20204;-48
2023/06/27 07:19:24;;;;;;;7.47;3.40;;;22.70;54.10;22.90;101222.00;;;;5000099;28;20199;-49
2023/06/27 07:21:49;;;;;;;6.97;3.47;;;22.70;54.20;22.90;101230.00;;;;4998009;28;20196;-49
2023/06/27 07:24:15;;;;;;;7.80;3.70;;;22.70;54.40;22.90;101229.00;;;;4993287;28;20604;-48
2023/06/27 07:26:41;;;;;;;7.40;3.50;;;22.70;54.60;22.90;101232.00;;;;4993164;28;20183;-49
2023/06/27 07:29:07;;;;;;;6.60;3.60;;;22.60;54.50;22.80;101231.00;;;;4993229;28;20207;-48
2023/06/27 07:31:32;;;;;;;6.30;3.47;;;22.60;54.60;22.80;101231.00;;;;4993446;28;20671;-48
2023/06/27 07:33:58;;;;;;;5.20;3.00;;;22.60;54.50;22.90;101225.00;;;;4993435;28;20177;-48
2023/06/27 07:36:24;;;;;;;7.97;3.40;;;22.70;54.50;22.90;101223.00;;;;4994777;28;20180;-48
2023/06/27 07:38:50;;;;;;;7.90;3.40;;;22.60;54.80;22.90;101235.00;;;;4993889;28;20176;-49
2023/06/27 07:41:16;;;;;;;6.47;3.50;;;22.60;55.10;22.90;101235.00;;;;4994018;28;20238;-48
2023/06/27 07:43:42;;;;;;;6.97;3.63;;;22.60;55.00;22.90;101226.00;;;;4993331;28;20766;-48
2023/06/27 07:46:07;;;;;;;10.50;3.97;;;22.60;55.00;22.80;101219.00;;;;4993086;28;20200;-48
2023/06/27 07:48:33;;;;;;;8.70;3.63;;;22.60;55.20;22.80;101224.00;;;;4992975;28;20212;-48
2023/06/27 07:50:59;;;;;;;7.17;3.13;;;22.60;55.10;22.80;101225.00;;;;4998262;28;20176;-48
2023/06/27 07:53:24;;;;;;;7.80;3.60;;;22.60;55.00;22.80;101212.00;;;;5006714;28;20187;-48
2023/06/27 07:55:50;;;;;;;7.80;3.60;;;22.60;55.10;22.80;101210.00;;;;5000074;28;20200;-48
2023/06/27 07:58:16;;;;;;;8.03;3.60;;;22.60;55.10;22.80;101211.00;;;;4993680;28;20202;-49
2023/06/27 08:00:42;;;;;;;6.70;3.40;;;22.60;55.10;22.80;101210.00;;;;4991784;28;20180;-48
2023/06/27 08:03:07;;;;;;;7.47;3.70;;;22.50;54.90;22.90;101209.00;;;;4996230;28;20173;-47
2023/06/27 08:05:35;;;;;;;6.30;3.40;;;22.50;55.10;22.80;101204.00;;;;4993214;28;20593;-48
2023/06/27 08:08:02;;;;;;;7.93;3.80;;;22.50;55.30;22.80;101201.00;;;;4993310;28;20247;-49
2023/06/27 08:10:28;;;;;;;9.23;3.87;;;22.50;55.40;22.90;101212.00;;;;4994314;28;20173;-49
2023/06/27 08:12:54;;;;;;;5.97;3.40;;;22.60;55.50;22.80;101199.00;;;;4992049;28;20181;-49
2023/06/27 08:15:21;;;;;;;6.67;3.30;;;22.60;55.30;22.80;101204.00;;;;5005017;28;20199;-49
2023/06/27 08:17:48;;;;;;;6.93;3.37;;;22.60;55.40;22.80;101209.00;;;;4995986;28;20183;-48
2023/06/27 08:20:13;;;;;;;7.70;3.80;;;22.60;56.20;22.90;101211.00;;;;4992646;28;20181;-49
2023/06/27 08:22:39;;;;;;;6.07;3.20;;;22.60;55.60;22.90;101212.00;;;;4993038;28;20658;-49
2023/06/27 08:25:06;;;;;;;5.93;3.20;;;22.50;55.60;22.90;101216.00;;;;4992334;28;20196;-50
2023/06/27 08:27:32;;;;;;;5.30;2.93;;;22.60;55.60;22.80;101204.00;;;;4991906;28;20208;-49
2023/06/27 08:29:57;;;;;;;5.90;3.83;;;22.50;55.20;22.90;101207.00;;;;4992115;28;20559;-49
2023/06/27 08:32:23;;;;;;;11.83;3.77;;;22.50;55.50;22.80;101211.00;;;;4990857;28;20173;-49
2023/06/27 08:34:49;;;;;;;4.90;3.07;;;22.50;55.50;22.80;101204.00;;;;4991865;28;20196;-48
2023/06/27 08:37:15;;;;;;;6.47;3.37;;;22.50;55.30;22.80;101205.00;;;;4991874;28;20239;-48
2023/06/27 08:39:40;;;;;;;7.67;3.23;;;22.50;55.30;22.80;101208.00;;;;4991783;28;20247;-48
2023/06/27 08:42:06;;;;;;;4.67;3.00;;;22.50;55.20;22.80;101189.00;;;;4991974;28;20172;-48
2023/06/27 08:44:32;;;;;;;7.30;3.47;;;22.50;55.10;22.80;101181.00;;;;4990343;28;20199;-49
2023/06/27 08:47:05;;;;;;;7.83;3.47;;;22.50;55.50;22.80;101188.00;;;;4991864;28;20172;-48
2023/06/27 08:49:33;;;;;;;5.67;3.33;;;22.50;55.50;22.70;101191.00;;;;4990542;28;20173;-48
2023/06/27 08:51:58;;;;;;;5.17;3.40;;;22.50;55.40;22.70;101175.00;;;;4990506;28;20168;-48
2023/06/27 08:54:47;;;;;;;6.07;2.70;;;22.50;55.20;22.70;101181.00;;;;4989979;28;20272;-49
2023/06/27 08:57:13;;;;;;;7.00;3.20;;;22.40;55.30;22.70;101180.00;;;;4990279;28;20223;-49
2023/06/27 08:59:38;;;;;;;5.50;3.30;;;22.50;55.50;22.80;101170.00;;;;4990034;28;20575;-49
2023/06/27 09:02:06;;;;;;;11.30;3.50;;;22.50;55.70;22.80;101164.00;;;;4991331;28;20172;-49
2023/06/27 09:04:35;;;;;;;4.63;3.00;;;22.50;55.90;22.80;101175.00;;;;4990041;28;20864;-49
2023/06/27 09:07:01;;;;;;;10.30;3.20;;;22.50;55.50;22.80;101180.00;;;;4989710;28;20176;-50
2023/06/27 09:09:28;;;;;;;6.77;3.17;;;22.40;55.30;22.80;101182.00;;;;4991436;28;20248;-50
2023/06/27 09:11:54;;;;;;;8.20;3.30;;;22.40;55.50;22.90;101173.00;;;;4989984;28;20161;-49
2023/06/27 09:14:20;;;;;;;7.70;3.10;;;22.50;55.50;22.90;101184.00;;;;4989790;28;20462;-50
2023/06/27 09:16:46;;;;;;;4.37;2.90;;;22.50;55.70;22.90;101177.00;;;;4991431;28;20176;-51
2023/06/27 09:19:11;;;;;;;5.60;3.00;;;22.50;55.70;23.00;101185.00;;;;4990085;28;20256;-50
2023/06/27 09:21:37;;;;;;;5.33;3.00;;;22.60;55.40;22.90;101179.00;;;;4991261;28;20168;-50
2023/06/27 09:24:07;;;;;;;4.47;2.80;;;22.60;55.70;23.00;101170.00;;;;4989636;28;20191;-48
2023/06/27 09:26:33;;;;;;;4.87;2.80;;;22.60;55.80;23.10;101180.00;;;;4990620;28;20750;-49
2023/06/27 09:28:59;;;;;;;4.63;2.60;;;22.60;55.70;23.10;101167.00;;;;5010018;28;20306;-49
2023/06/27 09:31:26;;;;;;;3.60;2.63;;;22.70;55.50;23.10;101172.00;;;;5001646;28;20183;-49
2023/06/27 09:33:53;;;;;;;6.90;3.00;;;22.70;55.30;23.20;101158.00;;;;4969351;28;20545;-49
2023/06/27 09:36:34;;;;;;;5.80;2.73;;;22.70;55.10;23.20;101172.00;;;;4979601;28;20198;-48
2023/06/27 09:39:07;;;;;;;7.93;3.00;;;22.80;55.30;23.20;101164.00;;;;4995967;28;20245;-49
2023/06/27 09:41:41;;;;;;;5.77;3.10;;;22.80;55.30;23.30;101157.00;;;;4999410;28;20186;-49
2023/06/27 09:44:17;;;;;;;4.20;2.57;;;22.80;55.20;23.30;101156.00;;;;4998333;28;20222;-49
2023/06/27 09:46:44;;;;;;;5.13;3.00;;;22.90;55.30;23.30;101163.00;;;;4989290;28;20663;-48
2023/06/27 09:49:10;;;;;;;5.20;2.77;;;22.80;54.70;23.30;101166.00;;;;4989377;28;20192;-49
2023/06/27 09:51:37;;;;;;;3.77;2.60;;;22.80;54.40;23.40;101103.00;;;;4993240;28;20183;-50
2023/06/27 09:54:03;;;;;;;4.37;2.70;;;22.90;54.40;23.40;101113.00;;;;5008430;28;20186;-50
2023/06/27 09:56:33;;;;;;;4.37;2.60;;;23.00;54.50;23.50;101166.00;;;;5008689;28;20215;-49
2023/06/27 09:59:11;;;;;;;4.43;2.50;;;23.00;54.20;23.50;101166.00;;;;5004126;28;20172;-49
2023/06/27 10:01:38;;;;;;;5.30;2.73;;;23.00;54.10;23.40;101179.00;;;;5008609;28;20186;-50
2023/06/27 10:04:04;;;;;;;5.13;2.60;;;22.90;53.80;23.40;101166.00;;;;5020397;28;20200;-50
2023/06/27 10:06:31;;;;;;;5.63;2.60;;;23.00;53.50;23.40;101164.00;;;;5015218;28;20554;-50
2023/06/27 10:08:57;;;;;;;3.90;2.33;;;23.00;53.30;23.40;101164.00;;;;5008770;28;20200;-50
2023/06/27 10:11:23;;;;;;;3.80;2.70;;;23.00;53.00;23.40;101168.00;;;;5008982;28;20259;-50
2023/06/27 10:13:50;;;;;;;4.37;2.50;;;23.00;53.20;23.50;101164.00;;;;5009050;28;20219;-49
2023/06/27 10:16:17;;;;;;;4.07;2.50;;;23.00;53.20;23.50;101157.00;;;;5008796;28;20212;-49
2023/06/27 10:18:43;;;;;;;3.13;2.43;;;23.00;52.90;23.50;101156.00;;;;5015600;28;20231;-50
2023/06/27 10:21:09;;;;;;;5.77;2.60;;;23.00;52.40;23.40;101158.00;;;;5012807;28;20183;-50
2023/06/27 10:23:35;;;;;;;4.63;2.70;;;23.10;52.00;23.40;101153.00;;;;5005411;28;20266;-50
2023/06/27 10:26:00;;;;;;;4.40;2.50;;;23.00;51.70;23.50;101162.00;;;;4993306;28;20208;-50
2023/06/27 10:28:28;;;;;;;4.53;2.40;;;23.10;51.60;23.50;101167.00;;;;4986461;28;20306;-49
2023/06/27 10:30:54;;;;;;;5.87;2.57;;;23.00;51.40;23.50;101172.00;;;;4985607;28;20168;-49
2023/06/27 10:33:22;;;;;;;5.03;2.40;;;23.10;51.20;23.50;101164.00;;;;4986640;28;20184;-50
2023/06/27 10:36:05;;;;;;;3.70;2.20;;;23.10;50.80;23.60;101175.00;;;;4988669;28;20200;-50
2023/06/27 10:38:35;;;;;;;4.20;2.30;;;23.10;50.50;23.60;101168.00;;;;4989827;28;20207;-50
2023/06/27 10:41:06;;;;;;;2.27;2.00;;;23.10;50.20;23.60;101164.00;;;;4988950;28;20192;-50
2023/06/27 10:43:51;;;;;;;3.13;2.27;;;23.10;50.20;23.60;101163.00;;;;4993419;28;20202;-50
2023/06/27 10:46:24;;;;;;;6.83;2.50;;;23.10;50.30;23.60;101159.00;;;;4989151;28;20263;-50